Airfield :
LOGIN :

Register | Disclaimer

   EN    FR    IT 

 










Legend :    VFR   Marginal VFR   IFR   Intensive IFR   Very Intensive IFR
Visi :
Ceiling :
>= 8 km
>= 3000ft
5 to 8 km
1000 to 3000 ft
1500m to 5 km
500 to 1000 ft
800 to 1500m
200 to 500 ft
< 800m
< 200 ft
Symbols :   Thunderstorms  Fog  Heavy snow  Heavy precipitations  Wind > 20 kt
SIGMETs :     Misc.  Thunderstorms  Icing  Turbulence  Mountain Waves  Volcanic Ashes







- Airport Elevation : 273 ft


EGXT - RAF Wittering Stamford

CURRENT METAR :
  • 240150Z AUTO 19002KT 3500 RA BKN090/// 19/17 Q1011

EXPIRED METARs :
  • 240050Z AUTO 11008KT 9999 FEW090/// SCT150/// 21/15 Q1011
  • 232350Z AUTO 10006KT 9999 SCT180/// 21/15 Q1011

Expired Forecast.
No reported NOTAMs for that airfield.
2 SIGMETs reported for the London FIR (EGTT) :
 
Frequent thunderstorms and hail
EGTT SIGMET 03 VALID 232304/240300 EGRR
EGTT LONDON FIR FRQ TSGR FCST WI N5000 W00200 - N4940 W00345 - N5056 W00451 - N5206 W00307 - N5010 E00012 - N5000 W00015 - N5000 W00200 TOP FL380 MOV N 45KT NC=
Frequent thunderstorms and hail
EGTT SIGMET 01 VALID 240104/240300 EGRR
EGTT LONDON FIR FRQ TSGR FCST WI N5417 W00208 - N5445 W00412 - N5500 W00400 - N5500 W00143 - N5417 W00208 TOP FL380 MOV N 40KT NC=



MET'MAP, your aeronautical weather chart ! - Copyright ORBIFLY December 2007 - Disclaimer

ORBIFLY MET'MAP TEAM :

Programming & Development : Alexandra Zaïnal
Concept & Development : Baudouin d'Aumeries
Co-Development & Prog : Marc-Olivier Méhu
Technical & hardware support : Manuel Goepfert

Contact : metmap@orbifly.com




SOURCES & CREDITS :

   NOAA